Chicago, Illinois
Traffic Map
Current Weather Conditions
Chicago, Illinois
Broken Clouds
Broken Clouds
79°
Feels Like: 80°
Wind Chill: 79° Ceiling: 25000
Heat Index: 80° Visibility: 10mi
Dew Point: 62° Wind: 6mph
Humidity: 56% Direction: 100° (E)
Pressure: 30.12in Gusts: 0mph
Raw Report DataKMDW 261953Z 10005KT 10SM FEW035 SCT150 SCT200 BKN250 26/17 A3012 RMK AO2 SLP191 T02610167
Traffic Incident Summary
Active as of:
Severity:
Category:
InformationThere was an issue retrieving the traffic information for this location. Please try a different location or try again shortly.
Advertisements
Track Severe Weather on mobile